createdAt,value
2023-04-15T00:02:00.033Z,100718.94
2023-04-15T00:04:28.029Z,100712.81
2023-04-15T00:06:54.731Z,100718.09
2023-04-15T00:09:21.533Z,100719.97
2023-04-15T00:11:48.065Z,100711.94
2023-04-15T00:14:14.588Z,100715.53
2023-04-15T00:16:41.508Z,100715.34
2023-04-15T00:19:08.340Z,100715.34
2023-04-15T00:21:35.021Z,100707.31
2023-04-15T00:24:01.962Z,100712.81
2023-04-15T00:26:28.493Z,100711.94
2023-04-15T00:28:55.812Z,100705.63
2023-04-15T00:31:23.146Z,100713.00
2023-04-15T00:33:49.865Z,100713.84
2023-04-15T00:36:16.373Z,100710.25
2023-04-15T00:38:42.956Z,100707.72
2023-04-15T00:41:10.885Z,100713.19
2023-04-15T00:43:37.408Z,100712.16
2023-04-15T00:46:05.142Z,100706.00
2023-04-15T00:48:32.320Z,100709.59
2023-04-15T00:50:59.177Z,100713.19
2023-04-15T00:53:25.801Z,100706.88
2023-04-15T00:55:52.716Z,100714.03
2023-04-15T00:58:20.274Z,100713.19
2023-04-15T01:00:47.109Z,100710.44
2023-04-15T01:03:14.323Z,100712.34
2023-04-15T01:05:41.659Z,100704.13
2023-04-15T01:08:08.256Z,100715.09
2023-04-15T01:10:35.373Z,100715.94
2023-04-15T01:13:03.155Z,100713.19
2023-04-15T01:15:29.905Z,100715.09
2023-04-15T01:17:59.603Z,100715.09
2023-04-15T01:20:27.500Z,100714.22
2023-04-15T01:22:54.747Z,100712.34
2023-04-15T01:25:33.033Z,100715.94
2023-04-15T01:28:00.014Z,100718.88
2023-04-15T01:30:27.221Z,100720.75
2023-04-15T01:32:54.279Z,100715.28
2023-04-15T01:35:21.562Z,100718.00
2023-04-15T01:37:48.563Z,100718.00
2023-04-15T01:40:17.104Z,100718.00
2023-04-15T01:42:43.606Z,100719.91
2023-04-15T01:45:10.498Z,100716.31
2023-04-15T01:47:38.077Z,100713.56
2023-04-15T01:50:05.167Z,100714.44
2023-04-15T01:52:32.207Z,100716.50
2023-04-15T01:54:58.784Z,100719.06
2023-04-15T01:57:25.311Z,100720.94
2023-04-15T01:59:52.012Z,100718.22
2023-04-15T02:02:18.607Z,100716.31
2023-04-15T02:04:45.504Z,100711.03
2023-04-15T02:07:12.194Z,100712.06
2023-04-15T02:09:39.183Z,100711.03
2023-04-15T02:12:08.027Z,100710.19
2023-04-15T02:14:34.644Z,100716.50
2023-04-15T02:17:07.209Z,100712.94
2023-04-15T02:19:37.551Z,100713.78
2023-04-15T02:22:04.132Z,100725.78
2023-04-15T02:24:31.114Z,100717.56
2023-04-15T02:26:57.641Z,100718.59
2023-04-15T02:29:24.185Z,100719.44
2023-04-15T02:31:51.095Z,100719.63
2023-04-15T02:34:17.662Z,100732.09
2023-04-15T02:36:45.610Z,100730.41
2023-04-15T02:39:14.801Z,100734.19
2023-04-15T02:41:43.551Z,100737.78
2023-04-15T02:44:12.992Z,100735.22
2023-04-15T02:46:41.221Z,100741.56
2023-04-15T02:49:08.557Z,100747.03
2023-04-15T02:51:36.175Z,100745.13
2023-04-15T02:54:02.677Z,100745.13
2023-04-15T02:56:30.211Z,100748.06
2023-04-15T02:58:57.309Z,100748.91
2023-04-15T03:01:23.869Z,100751.66
2023-04-15T03:03:50.471Z,100749.97
2023-04-15T03:06:17.101Z,100748.25
2023-04-15T03:08:43.633Z,100752.69
2023-04-15T03:11:12.627Z,100752.91
2023-04-15T03:13:41.721Z,100753.56
2023-04-15T03:16:15.006Z,100753.56
2023-04-15T03:18:41.915Z,100756.28
2023-04-15T03:21:08.572Z,100757.13
2023-04-15T03:23:37.839Z,100751.00
2023-04-15T03:26:05.043Z,100762.81
2023-04-15T03:28:33.194Z,100763.66
2023-04-15T03:31:00.712Z,100768.94
2023-04-15T03:33:27.320Z,100770.00
2023-04-15T03:35:54.307Z,100764.50
2023-04-15T03:38:21.012Z,100768.94
2023-04-15T03:40:47.574Z,100766.59
2023-04-15T03:43:14.285Z,100773.56
2023-04-15T03:45:40.829Z,100780.94
2023-04-15T03:48:17.253Z,100773.56
2023-04-15T03:50:44.691Z,100775.47
2023-04-15T03:53:11.140Z,100780.09
2023-04-15T03:55:37.961Z,100774.63
2023-04-15T03:58:04.517Z,100784.53
2023-04-15T04:00:31.052Z,100787.28
2023-04-15T04:02:57.745Z,100784.53
2023-04-15T04:05:24.518Z,100789.16
2023-04-15T04:07:51.094Z,100802.84
2023-04-15T04:10:18.817Z,100798.22
2023-04-15T04:12:45.264Z,100805.59
2023-04-15T04:15:12.444Z,100810.22
2023-04-15T04:17:38.953Z,100802.84
2023-04-15T04:20:06.051Z,100811.94
2023-04-15T04:22:37.821Z,100809.19
2023-04-15T04:25:04.550Z,100806.63
2023-04-15T04:27:31.212Z,100809.56
2023-04-15T04:29:57.690Z,100830.44
2023-04-15T04:32:24.509Z,100830.44
2023-04-15T04:34:51.035Z,100838.66
2023-04-15T04:37:17.503Z,100841.41
2023-04-15T04:39:44.000Z,100837.81
2023-04-15T04:42:10.452Z,100840.56
2023-04-15T04:44:37.227Z,100852.34
2023-04-15T04:47:03.705Z,100853.41
2023-04-15T04:49:30.377Z,100856.13
2023-04-15T04:51:57.597Z,100859.72
2023-04-15T04:54:24.331Z,100860.78
2023-04-15T04:56:50.920Z,100859.91
2023-04-15T04:59:18.978Z,100864.34
2023-04-15T05:01:46.609Z,100875.31
2023-04-15T05:04:13.233Z,100873.63
2023-04-15T05:06:39.871Z,100870.03
2023-04-15T05:09:06.639Z,100880.13
2023-04-15T05:11:33.297Z,100887.31
2023-04-15T05:14:01.647Z,100880.97
2023-04-15T05:16:28.382Z,100894.69
2023-04-15T05:18:54.886Z,100886.47
2023-04-15T05:21:21.564Z,100898.28
2023-04-15T05:23:48.150Z,100897.41
2023-04-15T05:26:14.755Z,100905.63
2023-04-15T05:28:41.327Z,100910.25
2023-04-15T05:31:07.997Z,100910.25
2023-04-15T05:33:34.678Z,100909.38
2023-04-15T05:36:01.186Z,100910.25
2023-04-15T05:38:27.734Z,100919.34
2023-04-15T05:40:54.269Z,100920.34
2023-04-15T05:43:20.750Z,100924.97
2023-04-15T05:45:47.419Z,100925.81
2023-04-15T05:48:13.886Z,100927.56
2023-04-15T05:50:43.150Z,100938.50
2023-04-15T05:53:09.754Z,100933.19
2023-04-15T05:55:36.541Z,100942.09
2023-04-15T05:58:03.766Z,100947.72
2023-04-15T06:00:31.163Z,100946.88
2023-04-15T06:02:58.884Z,100956.84
2023-04-15T06:05:25.440Z,100947.72
2023-04-15T06:07:52.189Z,100958.69
2023-04-15T06:10:18.833Z,100964.16
2023-04-15T06:12:45.925Z,100965.06
2023-04-15T06:15:12.388Z,100971.53
2023-04-15T06:17:38.907Z,100974.28
2023-04-15T06:20:05.924Z,100985.22
2023-04-15T06:22:32.478Z,100993.44
2023-04-15T06:24:59.030Z,100991.56
2023-04-15T06:27:25.697Z,101000.66
2023-04-15T06:29:52.289Z,101001.66
2023-04-15T06:32:18.820Z,101008.88
2023-04-15T06:34:45.305Z,101008.00
2023-04-15T06:37:16.069Z,101014.34
2023-04-15T06:39:43.607Z,101009.88
2023-04-15T06:42:11.230Z,101019.84
2023-04-15T06:44:38.140Z,101024.44
2023-04-15T06:47:04.670Z,101029.91
2023-04-15T06:49:31.732Z,101024.44
2023-04-15T06:51:58.272Z,101030.78
2023-04-15T06:54:24.729Z,101030.78
2023-04-15T06:56:51.988Z,101040.00
2023-04-15T06:59:39.109Z,101044.50
2023-04-15T07:02:06.008Z,101045.50
2023-04-15T07:04:32.820Z,101053.72
2023-04-15T07:07:00.775Z,101049.97
2023-04-15T07:09:27.304Z,101051.81
2023-04-15T07:11:53.847Z,101056.44
2023-04-15T07:14:20.866Z,101072.88
2023-04-15T07:16:47.613Z,101067.41
2023-04-15T07:19:14.161Z,101080.09
2023-04-15T07:21:42.012Z,101077.38
2023-04-15T07:24:10.431Z,101091.06
2023-04-15T07:26:37.028Z,101088.31
2023-04-15T07:29:03.983Z,101091.06
2023-04-15T07:31:31.320Z,101102.03
2023-04-15T07:33:58.601Z,101100.97
2023-04-15T07:36:25.475Z,101109.19
2023-04-15T07:38:52.570Z,101103.72
2023-04-15T07:41:19.301Z,101111.94
2023-04-15T07:43:45.764Z,101114.69
2023-04-15T07:46:12.758Z,101117.56
2023-04-15T07:48:39.378Z,101122.03
2023-04-15T07:51:06.188Z,101122.03
2023-04-15T07:53:33.250Z,101128.38
2023-04-15T07:55:59.758Z,101125.63
2023-04-15T07:58:26.230Z,101134.72
2023-04-15T08:00:52.856Z,101134.88
2023-04-15T08:03:19.457Z,101131.97
2023-04-15T08:05:47.299Z,101144.81
2023-04-15T08:08:14.007Z,101147.56
2023-04-15T08:10:40.949Z,101142.06
2023-04-15T08:13:07.786Z,101149.44
2023-04-15T08:15:34.375Z,101146.69
2023-04-15T08:18:01.153Z,101146.69
2023-04-15T08:20:27.963Z,101154.91
2023-04-15T08:22:54.439Z,101155.78
2023-04-15T08:25:21.494Z,101160.41
2023-04-15T08:27:48.216Z,101157.66
2023-04-15T08:30:15.325Z,101163.13
2023-04-15T08:32:42.737Z,101157.66
2023-04-15T08:35:09.454Z,101164.00
2023-04-15T08:37:35.935Z,101167.75
2023-04-15T08:40:02.397Z,101169.47
2023-04-15T08:42:35.230Z,101170.31
2023-04-15T08:45:04.979Z,101173.06
2023-04-15T08:47:33.768Z,101183.16
2023-04-15T08:50:04.352Z,101183.16
2023-04-15T08:52:31.577Z,101192.25
2023-04-15T08:55:00.297Z,101194.13
2023-04-15T08:57:28.562Z,101194.97
2023-04-15T08:59:58.329Z,101196.88
2023-04-15T09:02:27.327Z,101201.31
2023-04-15T09:04:54.180Z,101194.97
2023-04-15T09:07:20.751Z,101208.66
2023-04-15T09:09:48.454Z,101204.03
2023-04-15T09:12:16.882Z,101214.16
2023-04-15T09:14:46.827Z,101216.72
2023-04-15T09:17:13.420Z,101217.75
2023-04-15T09:19:39.866Z,101225.97
2023-04-15T09:22:06.545Z,101226.81
2023-04-15T09:24:42.233Z,101227.66
2023-04-15T09:27:09.277Z,101232.28
2023-04-15T09:29:37.035Z,101233.16
2023-04-15T09:32:11.848Z,101250.25
2023-04-15T09:34:38.520Z,101246.00
2023-04-15T09:37:05.141Z,101243.06
2023-04-15T09:39:49.805Z,101246.66
2023-04-15T09:42:17.619Z,101249.59
2023-04-15T09:44:44.384Z,101240.50
2023-04-15T09:47:27.532Z,101253.84
2023-04-15T09:49:58.554Z,101258.47
2023-04-15T09:52:25.182Z,101255.75
2023-04-15T09:54:57.261Z,101259.31
2023-04-15T09:57:24.587Z,101261.22
2023-04-15T09:59:51.956Z,101262.91
2023-04-15T10:02:21.098Z,101262.91
2023-04-15T10:04:49.119Z,101265.66
2023-04-15T10:07:18.084Z,101268.41
2023-04-15T10:09:46.320Z,101268.22
2023-04-15T10:12:14.793Z,101274.56
2023-04-15T10:14:44.341Z,101268.22
2023-04-15T10:17:17.739Z,101278.16
2023-04-15T10:19:45.241Z,101275.59
2023-04-15T10:22:11.945Z,101273.69
2023-04-15T10:24:39.215Z,101274.56
2023-04-15T10:27:06.401Z,101281.75
2023-04-15T10:29:33.104Z,101283.63
2023-04-15T10:32:00.653Z,101287.22
2023-04-15T10:34:27.913Z,101283.44
2023-04-15T10:37:04.051Z,101287.22
2023-04-15T10:39:33.909Z,101290.81
2023-04-15T10:42:19.754Z,101287.22
2023-04-15T10:44:51.812Z,101295.44
2023-04-15T10:47:21.474Z,101290.81
2023-04-15T10:49:51.464Z,101300.91
2023-04-15T10:52:23.644Z,101308.09
2023-04-15T10:54:50.261Z,101301.78
2023-04-15T10:57:16.882Z,101307.25
2023-04-15T10:59:58.800Z,101307.94
2023-04-15T11:02:48.094Z,101308.97
2023-04-15T11:05:16.721Z,101307.25
2023-04-15T11:07:46.809Z,101301.59
2023-04-15T11:10:25.962Z,101312.56
2023-04-15T11:12:54.802Z,101310.00
2023-04-15T11:15:25.337Z,101312.56
2023-04-15T11:17:52.289Z,101320.78
2023-04-15T11:20:19.134Z,101311.69
2023-04-15T11:22:53.145Z,101313.41
2023-04-15T11:25:39.640Z,101322.66
2023-04-15T11:28:07.597Z,101319.06
2023-04-15T11:30:36.632Z,101325.22
2023-04-15T11:33:12.072Z,101319.75
2023-04-15T11:35:41.757Z,101327.09
2023-04-15T11:38:10.678Z,101322.47
2023-04-15T11:40:37.696Z,101331.56
2023-04-15T11:43:21.098Z,101334.13
2023-04-15T11:45:59.100Z,101333.25
2023-04-15T11:48:27.924Z,101325.03
2023-04-15T11:51:00.236Z,101332.22
2023-04-15T11:53:45.986Z,101324.00
2023-04-15T11:56:24.269Z,101320.41
2023-04-15T11:58:57.075Z,101320.41
2023-04-15T12:01:42.295Z,101327.59
2023-04-15T12:04:22.566Z,101331.38
2023-04-15T12:06:51.608Z,101337.72
2023-04-15T12:09:18.304Z,101335.81
2023-04-15T12:11:49.902Z,101332.91
2023-04-15T12:14:30.475Z,101345.56
2023-04-15T12:17:00.000Z,101344.72
2023-04-15T12:19:29.382Z,101346.59
2023-04-15T12:22:08.854Z,101351.91
2023-04-15T12:24:37.039Z,101351.91
2023-04-15T12:27:08.023Z,101353.63
2023-04-15T12:29:36.443Z,101359.09
2023-04-15T12:32:10.355Z,101355.31
2023-04-15T12:34:39.369Z,101363.53
2023-04-15T12:37:09.454Z,101370.72
2023-04-15T12:39:37.991Z,101369.03
2023-04-15T12:42:06.105Z,101363.53
2023-04-15T12:44:33.636Z,101378.94
2023-04-15T12:47:00.551Z,101376.22
2023-04-15T12:49:27.609Z,101380.66
2023-04-15T12:51:56.939Z,101378.78
2023-04-15T12:54:23.483Z,101388.88
2023-04-15T12:56:51.206Z,101394.19
2023-04-15T12:59:18.564Z,101397.09
2023-04-15T13:01:45.818Z,101397.97
2023-04-15T13:04:12.377Z,101398.81
2023-04-15T13:06:39.043Z,101398.81
2023-04-15T13:09:06.343Z,101396.94
2023-04-15T13:11:36.625Z,101397.78
2023-04-15T13:14:05.281Z,101393.16
2023-04-15T13:16:33.062Z,101404.13
2023-04-15T13:19:00.429Z,101399.47
2023-04-15T13:21:27.742Z,101406.84
2023-04-15T13:23:54.501Z,101404.97
2023-04-15T13:26:21.214Z,101416.78
2023-04-15T13:28:48.141Z,101414.03
2023-04-15T13:31:14.706Z,101411.31
2023-04-15T13:33:41.242Z,101417.63
2023-04-15T13:36:08.332Z,101423.97
2023-04-15T13:38:34.849Z,101417.63
2023-04-15T13:41:01.566Z,101417.63
2023-04-15T13:43:28.269Z,101423.13
2023-04-15T13:45:55.301Z,101429.63
2023-04-15T13:48:21.869Z,101434.09
2023-04-15T13:50:48.339Z,101435.13
2023-04-15T13:53:16.296Z,101436.81
2023-04-15T13:55:43.206Z,101447.78
2023-04-15T13:58:10.256Z,101448.63
2023-04-15T14:00:37.261Z,101453.28
2023-04-15T14:03:04.085Z,101458.75
2023-04-15T14:05:30.822Z,101455.16
2023-04-15T14:07:57.582Z,101459.78
2023-04-15T14:10:24.122Z,101468.84
2023-04-15T14:12:50.740Z,101468.84
2023-04-15T14:15:17.321Z,101470.75
2023-04-15T14:17:43.832Z,101475.38
2023-04-15T14:20:10.614Z,101484.44
2023-04-15T14:22:37.103Z,101481.88
2023-04-15T14:25:04.502Z,101488.22
2023-04-15T14:27:31.142Z,101489.06
2023-04-15T14:29:58.758Z,101495.41
2023-04-15T14:32:26.335Z,101501.75
2023-04-15T14:34:52.867Z,101499.88
2023-04-15T14:37:19.568Z,101495.41
2023-04-15T14:39:46.334Z,101502.59
2023-04-15T14:42:12.799Z,101502.59
2023-04-15T14:44:39.353Z,101516.13
2023-04-15T14:47:06.084Z,101520.75
2023-04-15T14:49:32.745Z,101521.44
2023-04-15T14:51:59.264Z,101525.03
2023-04-15T14:54:25.744Z,101530.50
2023-04-15T14:56:52.249Z,101539.59
2023-04-15T14:59:18.705Z,101541.31
2023-04-15T15:01:45.515Z,101544.91
2023-04-15T15:04:13.016Z,101551.22
2023-04-15T15:06:40.213Z,101547.63
2023-04-15T15:09:06.916Z,101553.13
2023-04-15T15:11:33.665Z,101561.34
2023-04-15T15:14:00.246Z,101564.94
2023-04-15T15:16:28.250Z,101567.69
2023-04-15T15:18:55.069Z,101567.69
2023-04-15T15:21:21.713Z,101570.44
2023-04-15T15:23:48.532Z,101575.06
2023-04-15T15:26:15.397Z,101583.28
2023-04-15T15:28:42.244Z,101590.63
2023-04-15T15:31:09.001Z,101587.91
2023-04-15T15:33:35.577Z,101588.94
2023-04-15T15:36:03.616Z,101589.78
2023-04-15T15:38:30.428Z,101588.06
2023-04-15T15:40:56.971Z,101591.66
2023-04-15T15:43:23.593Z,101598.19
2023-04-15T15:45:52.257Z,101602.97
2023-04-15T15:48:18.819Z,101604.69
2023-04-15T15:50:45.738Z,101604.69
2023-04-15T15:53:17.801Z,101606.56
2023-04-15T15:55:44.333Z,101620.28
2023-04-15T15:58:11.037Z,101624.06
2023-04-15T16:00:37.666Z,101624.06
2023-04-15T16:03:07.148Z,101622.34
2023-04-15T16:05:35.111Z,101632.44
2023-04-15T16:08:01.877Z,101633.31
2023-04-15T16:10:28.905Z,101641.53
2023-04-15T16:12:55.786Z,101644.28
2023-04-15T16:15:23.932Z,101654.38
2023-04-15T16:17:50.560Z,101652.66
2023-04-15T16:20:17.239Z,101655.41
2023-04-15T16:22:43.759Z,101660.88
2023-04-15T16:25:10.579Z,101658.16
2023-04-15T16:30:08.986Z,101668.25
2023-04-15T16:32:36.106Z,101667.41
2023-04-15T16:35:03.600Z,101672.88
2023-04-15T16:37:31.494Z,101676.66
2023-04-15T16:39:58.000Z,101671.16
2023-04-15T16:42:24.619Z,101678.34
2023-04-15T16:44:51.139Z,101684.00
2023-04-15T16:47:17.766Z,101689.50
2023-04-15T16:49:44.250Z,101696.84
2023-04-15T16:52:10.857Z,101685.91
2023-04-15T16:54:41.200Z,101699.59
2023-04-15T16:57:08.711Z,101705.09
2023-04-15T16:59:35.329Z,101705.09
2023-04-15T17:02:01.902Z,101712.44
2023-04-15T17:04:28.922Z,101709.72
2023-04-15T17:06:55.597Z,101709.72
2023-04-15T17:09:22.138Z,101708.84
2023-04-15T17:11:49.887Z,101709.72
2023-04-15T17:14:16.358Z,101712.44
2023-04-15T17:16:43.264Z,101717.06
2023-04-15T17:19:09.768Z,101716.22
2023-04-15T17:21:36.556Z,101717.06
2023-04-15T17:24:03.307Z,101724.44
2023-04-15T17:26:31.040Z,101721.69
2023-04-15T17:28:57.689Z,101726.31
2023-04-15T17:31:25.403Z,101728.03
2023-04-15T17:34:02.837Z,101730.78
2023-04-15T17:36:36.140Z,101732.81
2023-04-15T17:39:05.027Z,101729.22
2023-04-15T17:41:32.746Z,101734.72
2023-04-15T17:43:59.368Z,101741.06
2023-04-15T17:46:26.805Z,101747.56
2023-04-15T17:48:53.343Z,101748.41
2023-04-15T17:51:19.892Z,101751.16
2023-04-15T17:53:46.361Z,101765.88
2023-04-15T17:56:12.865Z,101767.78
2023-04-15T17:58:39.423Z,101770.50
2023-04-15T18:01:06.375Z,101771.38
2023-04-15T18:03:33.061Z,101773.25
2023-04-15T18:06:01.303Z,101766.91
2023-04-15T18:08:28.922Z,101784.22
2023-04-15T18:10:55.500Z,101781.47
2023-04-15T18:13:21.991Z,101785.25
2023-04-15T18:15:49.487Z,101781.47
2023-04-15T18:18:17.154Z,101786.97
2023-04-15T18:20:43.660Z,101787.97
2023-04-15T18:23:10.375Z,101805.28
2023-04-15T18:25:38.293Z,101801.69
2023-04-15T18:28:05.592Z,101811.78
2023-04-15T18:30:32.242Z,101808.03
2023-04-15T18:32:58.825Z,101814.53
2023-04-15T18:35:25.517Z,101817.28
2023-04-15T18:37:52.783Z,101823.59
2023-04-15T18:40:19.329Z,101821.91
2023-04-15T18:42:45.906Z,101821.91
2023-04-15T18:45:12.455Z,101832.69
2023-04-15T18:47:39.152Z,101833.72
2023-04-15T18:50:06.734Z,101836.44
2023-04-15T18:52:34.163Z,101841.06
2023-04-15T18:55:03.032Z,101838.34
2023-04-15T18:57:35.011Z,101848.28
2023-04-15T19:00:03.549Z,101851.19
2023-04-15T19:02:30.101Z,101846.56
2023-04-15T19:04:56.674Z,101853.06
2023-04-15T19:07:23.207Z,101852.22
2023-04-15T19:09:49.800Z,101857.69
2023-04-15T19:12:16.289Z,101856.81
2023-04-15T19:14:42.817Z,101862.31
2023-04-15T19:17:09.323Z,101868.81
2023-04-15T19:19:36.887Z,101872.41
2023-04-15T19:22:03.424Z,101883.38
2023-04-15T19:24:33.030Z,101885.25
2023-04-15T19:26:59.944Z,101888.00
2023-04-15T19:29:28.518Z,101885.25
2023-04-15T19:31:55.200Z,101899.97
2023-04-15T19:34:21.863Z,101903.56
2023-04-15T19:36:48.375Z,101905.47
2023-04-15T19:39:15.002Z,101905.47
2023-04-15T19:41:41.559Z,101910.09
2023-04-15T19:44:08.111Z,101911.97
2023-04-15T19:46:34.737Z,101910.94
2023-04-15T19:49:01.404Z,101910.09
2023-04-15T19:51:28.469Z,101918.31
2023-04-15T19:53:56.727Z,101909.22
2023-04-15T19:56:24.167Z,101906.50
2023-04-15T19:58:52.983Z,101909.22
2023-04-15T20:01:20.478Z,101910.25
2023-04-15T20:03:47.438Z,101907.50
2023-04-15T20:06:17.162Z,101903.75
2023-04-15T20:08:43.710Z,101904.78
2023-04-15T20:11:10.640Z,101902.03
2023-04-15T20:13:38.235Z,101905.63
2023-04-15T20:16:07.871Z,101903.91
2023-04-15T20:18:34.893Z,101911.28
2023-04-15T20:21:01.664Z,101919.50
2023-04-15T20:23:28.233Z,101916.75
2023-04-15T20:25:54.764Z,101914.00
2023-04-15T20:28:23.312Z,101914.88
2023-04-15T20:30:49.837Z,101914.88
2023-04-15T20:33:16.581Z,101921.38
2023-04-15T20:35:43.039Z,101926.84
2023-04-15T20:38:09.628Z,101916.91
2023-04-15T20:40:36.392Z,101923.25
2023-04-15T20:43:02.909Z,101924.13
2023-04-15T20:45:29.480Z,101921.53
2023-04-15T20:47:56.133Z,101918.63
2023-04-15T20:50:23.704Z,101922.41
2023-04-15T20:52:50.186Z,101925.13
2023-04-15T20:55:16.811Z,101927.03
2023-04-15T20:57:43.381Z,101923.41
2023-04-15T21:00:10.887Z,101929.75
2023-04-15T21:02:37.979Z,101927.19
2023-04-15T21:05:04.956Z,101920.69
2023-04-15T21:07:31.489Z,101917.94
2023-04-15T21:09:57.999Z,101923.41
2023-04-15T21:12:24.595Z,101924.44
2023-04-15T21:14:51.252Z,101929.06
2023-04-15T21:17:17.807Z,101931.81
2023-04-15T21:19:44.615Z,101937.13
2023-04-15T21:22:11.235Z,101937.28
2023-04-15T21:24:37.803Z,101936.25
2023-04-15T21:27:04.284Z,101938.16
2023-04-15T21:29:30.785Z,101934.56
2023-04-15T21:31:57.326Z,101940.03
2023-04-15T21:34:23.877Z,101941.06
2023-04-15T21:36:50.623Z,101945.50
2023-04-15T21:39:17.275Z,101952.88
2023-04-15T21:41:43.842Z,101958.34
2023-04-15T21:44:12.060Z,101950.13
2023-04-15T21:46:39.716Z,101952.00
2023-04-15T21:49:07.082Z,101952.00
2023-04-15T21:51:34.013Z,101963.84
2023-04-15T21:54:00.641Z,101958.34
2023-04-15T21:56:27.165Z,101965.72
2023-04-15T21:58:59.573Z,101965.72
2023-04-15T22:01:26.781Z,101974.78
2023-04-15T22:03:53.610Z,101964.84
2023-04-15T22:06:20.479Z,101977.53
2023-04-15T22:08:56.159Z,101973.94
2023-04-15T22:11:28.417Z,101975.81
2023-04-15T22:13:56.662Z,101976.66
2023-04-15T22:16:24.508Z,101987.63
2023-04-15T22:18:51.308Z,101986.78
2023-04-15T22:21:17.785Z,101989.50
2023-04-15T22:23:48.380Z,101989.34
2023-04-15T22:26:14.887Z,101993.09
2023-04-15T22:28:41.829Z,101991.41
2023-04-15T22:31:08.428Z,101991.41
2023-04-15T22:33:35.112Z,101992.25
2023-04-15T22:36:01.556Z,101995.84
2023-04-15T22:38:27.994Z,101995.84
2023-04-15T22:40:54.553Z,102004.06
2023-04-15T22:43:21.118Z,102004.06
2023-04-15T22:45:51.101Z,102006.81
2023-04-15T22:48:18.524Z,102009.56
2023-04-15T22:50:45.140Z,102009.56
2023-04-15T22:53:11.662Z,102016.75
2023-04-15T22:55:38.289Z,102010.41
2023-04-15T22:58:04.856Z,102010.41
2023-04-15T23:00:31.348Z,102007.66
2023-04-15T23:02:58.038Z,102018.63
2023-04-15T23:05:24.803Z,102020.19
2023-04-15T23:07:51.340Z,102018.47
2023-04-15T23:10:17.823Z,102023.09
2023-04-15T23:12:44.318Z,102023.94
2023-04-15T23:15:11.646Z,102016.75
2023-04-15T23:17:38.373Z,102020.19
2023-04-15T23:20:05.627Z,102015.91
2023-04-15T23:22:32.123Z,102020.19
2023-04-15T23:24:58.584Z,102019.31
2023-04-15T23:27:25.160Z,102032.00
2023-04-15T23:29:51.654Z,102019.31
2023-04-15T23:32:18.200Z,102022.94
2023-04-15T23:34:44.688Z,102021.06
2023-04-15T23:37:11.425Z,102025.66
2023-04-15T23:39:37.877Z,102032.16
2023-04-15T23:42:04.360Z,102040.38
2023-04-15T23:44:30.925Z,102039.38
2023-04-15T23:46:57.470Z,102033.19
2023-04-15T23:49:23.989Z,102036.63
2023-04-15T23:51:51.020Z,102047.59
2023-04-15T23:54:17.531Z,102044.00
2023-04-15T23:56:44.069Z,102031.16
2023-04-15T23:59:10.639Z,102042.09
